sensor_id;sensor_type;location;lat;lon;timestamp;P1;durP1;ratioP1;P2;durP2;ratioP2
43297;SDS011;28892;55.640;37.532;2023-05-23T00:00:00;12.07;;;9.40;;
43297;SDS011;28892;55.640;37.532;2023-05-23T00:02:26;12.52;;;8.98;;
43297;SDS011;28892;55.640;37.532;2023-05-23T00:04:53;13.70;;;8.93;;
43297;SDS011;28892;55.640;37.532;2023-05-23T00:07:22;12.48;;;8.75;;
43297;SDS011;28892;55.640;37.532;2023-05-23T00:09:49;13.43;;;10.30;;
43297;SDS011;28892;55.640;37.532;2023-05-23T00:12:20;11.35;;;9.18;;
43297;SDS011;28892;55.640;37.532;2023-05-23T00:14:48;13.30;;;9.73;;
43297;SDS011;28892;55.640;37.532;2023-05-23T00:17:20;12.00;;;9.57;;
43297;SDS011;28892;55.640;37.532;2023-05-23T00:19:49;12.75;;;9.50;;
43297;SDS011;28892;55.640;37.532;2023-05-23T00:22:18;14.13;;;9.73;;
43297;SDS011;28892;55.640;37.532;2023-05-23T00:24:44;18.13;;;9.73;;
43297;SDS011;28892;55.640;37.532;2023-05-23T00:27:09;12.93;;;9.82;;
43297;SDS011;28892;55.640;37.532;2023-05-23T00:29:35;10.73;;;8.88;;
43297;SDS011;28892;55.640;37.532;2023-05-23T00:32:01;10.20;;;8.95;;
43297;SDS011;28892;55.640;37.532;2023-05-23T00:34:27;15.73;;;10.55;;
43297;SDS011;28892;55.640;37.532;2023-05-23T00:36:56;15.27;;;9.52;;
43297;SDS011;28892;55.640;37.532;2023-05-23T00:39:22;16.25;;;9.60;;
43297;SDS011;28892;55.640;37.532;2023-05-23T00:41:51;15.85;;;9.52;;
43297;SDS011;28892;55.640;37.532;2023-05-23T00:44:17;13.70;;;10.07;;
43297;SDS011;28892;55.640;37.532;2023-05-23T00:46:50;13.23;;;10.18;;
43297;SDS011;28892;55.640;37.532;2023-05-23T00:49:20;13.82;;;9.80;;
43297;SDS011;28892;55.640;37.532;2023-05-23T00:51:58;11.93;;;9.18;;
43297;SDS011;28892;55.640;37.532;2023-05-23T00:54:27;13.20;;;9.98;;
43297;SDS011;28892;55.640;37.532;2023-05-23T00:56:55;15.85;;;10.40;;
43297;SDS011;28892;55.640;37.532;2023-05-23T00:59:23;11.95;;;9.60;;
43297;SDS011;28892;55.640;37.532;2023-05-23T01:01:50;13.25;;;9.65;;
43297;SDS011;28892;55.640;37.532;2023-05-23T01:04:19;17.90;;;10.95;;
43297;SDS011;28892;55.640;37.532;2023-05-23T01:06:47;16.52;;;10.05;;
43297;SDS011;28892;55.640;37.532;2023-05-23T01:09:16;14.75;;;9.50;;
43297;SDS011;28892;55.640;37.532;2023-05-23T01:17:20;13.13;;;9.30;;
43297;SDS011;28892;55.640;37.532;2023-05-23T01:20:02;13.88;;;10.10;;
43297;SDS011;28892;55.640;37.532;2023-05-23T01:27:51;15.00;;;9.48;;
43297;SDS011;28892;55.640;37.532;2023-05-23T01:30:21;17.00;;;9.50;;
43297;SDS011;28892;55.640;37.532;2023-05-23T01:32:55;12.75;;;9.15;;
43297;SDS011;28892;55.640;37.532;2023-05-23T01:35:24;15.57;;;9.48;;
43297;SDS011;28892;55.640;37.532;2023-05-23T01:37:56;13.57;;;9.55;;
43297;SDS011;28892;55.640;37.532;2023-05-23T01:40:23;13.60;;;9.50;;
43297;SDS011;28892;55.640;37.532;2023-05-23T01:42:50;16.13;;;10.27;;
43297;SDS011;28892;55.640;37.532;2023-05-23T01:45:21;16.43;;;9.97;;
43297;SDS011;28892;55.640;37.532;2023-05-23T01:47:51;11.73;;;9.75;;
43297;SDS011;28892;55.640;37.532;2023-05-23T01:50:19;12.27;;;10.05;;
43297;SDS011;28892;55.640;37.532;2023-05-23T01:52:48;18.40;;;10.40;;
43297;SDS011;28892;55.640;37.532;2023-05-23T01:55:15;13.75;;;9.13;;
43297;SDS011;28892;55.640;37.532;2023-05-23T01:57:50;10.35;;;8.50;;
43297;SDS011;28892;55.640;37.532;2023-05-23T02:00:17;13.40;;;9.85;;
43297;SDS011;28892;55.640;37.532;2023-05-23T02:02:45;13.90;;;9.40;;
43297;SDS011;28892;55.640;37.532;2023-05-23T02:05:14;17.77;;;10.05;;
43297;SDS011;28892;55.640;37.532;2023-05-23T02:07:40;14.50;;;9.27;;
43297;SDS011;28892;55.640;37.532;2023-05-23T02:10:07;12.75;;;9.55;;
43297;SDS011;28892;55.640;37.532;2023-05-23T02:12:34;14.55;;;9.38;;
43297;SDS011;28892;55.640;37.532;2023-05-23T02:15:00;17.08;;;9.40;;
43297;SDS011;28892;55.640;37.532;2023-05-23T02:17:27;19.23;;;9.88;;
43297;SDS011;28892;55.640;37.532;2023-05-23T02:19:53;14.43;;;9.80;;
43297;SDS011;28892;55.640;37.532;2023-05-23T02:22:22;14.95;;;10.38;;
43297;SDS011;28892;55.640;37.532;2023-05-23T02:24:51;16.50;;;10.50;;
43297;SDS011;28892;55.640;37.532;2023-05-23T02:27:17;15.05;;;9.75;;
43297;SDS011;28892;55.640;37.532;2023-05-23T02:29:46;17.27;;;9.60;;
43297;SDS011;28892;55.640;37.532;2023-05-23T02:32:12;13.65;;;9.52;;
43297;SDS011;28892;55.640;37.532;2023-05-23T02:34:37;18.63;;;9.70;;
43297;SDS011;28892;55.640;37.532;2023-05-23T02:37:05;14.48;;;10.18;;
43297;SDS011;28892;55.640;37.532;2023-05-23T02:39:36;14.02;;;9.63;;
43297;SDS011;28892;55.640;37.532;2023-05-23T02:42:02;16.90;;;10.95;;
43297;SDS011;28892;55.640;37.532;2023-05-23T02:44:29;15.23;;;10.40;;
43297;SDS011;28892;55.640;37.532;2023-05-23T02:50:09;18.02;;;10.50;;
43297;SDS011;28892;55.640;37.532;2023-05-23T02:52:36;14.07;;;10.65;;
43297;SDS011;28892;55.640;37.532;2023-05-23T02:55:05;12.18;;;9.63;;
43297;SDS011;28892;55.640;37.532;2023-05-23T02:57:37;12.43;;;9.43;;
43297;SDS011;28892;55.640;37.532;2023-05-23T03:00:06;14.18;;;10.43;;
43297;SDS011;28892;55.640;37.532;2023-05-23T03:02:36;17.70;;;11.27;;
43297;SDS011;28892;55.640;37.532;2023-05-23T03:05:12;15.18;;;10.23;;
43297;SDS011;28892;55.640;37.532;2023-05-23T03:07:37;13.07;;;10.68;;
43297;SDS011;28892;55.640;37.532;2023-05-23T03:10:04;15.48;;;10.55;;
43297;SDS011;28892;55.640;37.532;2023-05-23T03:12:34;11.45;;;10.07;;
43297;SDS011;28892;55.640;37.532;2023-05-23T03:15:00;12.32;;;9.63;;
43297;SDS011;28892;55.640;37.532;2023-05-23T03:17:26;13.55;;;10.48;;
43297;SDS011;28892;55.640;37.532;2023-05-23T03:19:52;15.68;;;10.05;;
43297;SDS011;28892;55.640;37.532;2023-05-23T03:22:18;14.32;;;9.90;;
43297;SDS011;28892;55.640;37.532;2023-05-23T03:24:53;12.88;;;10.43;;
43297;SDS011;28892;55.640;37.532;2023-05-23T03:27:19;12.57;;;10.38;;
43297;SDS011;28892;55.640;37.532;2023-05-23T03:29:45;17.05;;;11.00;;
43297;SDS011;28892;55.640;37.532;2023-05-23T03:32:12;21.55;;;10.30;;
43297;SDS011;28892;55.640;37.532;2023-05-23T03:34:41;17.08;;;11.07;;
43297;SDS011;28892;55.640;37.532;2023-05-23T03:37:09;13.57;;;9.02;;
43297;SDS011;28892;55.640;37.532;2023-05-23T03:39:36;15.98;;;9.48;;
43297;SDS011;28892;55.640;37.532;2023-05-23T03:42:05;15.30;;;9.85;;
43297;SDS011;28892;55.640;37.532;2023-05-23T03:44:32;14.07;;;9.98;;
43297;SDS011;28892;55.640;37.532;2023-05-23T03:46:58;12.43;;;9.95;;
43297;SDS011;28892;55.640;37.532;2023-05-23T03:49:24;17.65;;;10.43;;
43297;SDS011;28892;55.640;37.532;2023-05-23T03:51:50;11.13;;;9.07;;
43297;SDS011;28892;55.640;37.532;2023-05-23T03:54:18;13.55;;;9.10;;
43297;SDS011;28892;55.640;37.532;2023-05-23T03:56:44;10.55;;;8.85;;
43297;SDS011;28892;55.640;37.532;2023-05-23T03:59:17;16.23;;;9.55;;
43297;SDS011;28892;55.640;37.532;2023-05-23T04:01:44;17.65;;;9.55;;
43297;SDS011;28892;55.640;37.532;2023-05-23T04:04:10;13.13;;;9.15;;
43297;SDS011;28892;55.640;37.532;2023-05-23T04:06:36;12.57;;;9.90;;
43297;SDS011;28892;55.640;37.532;2023-05-23T04:09:03;14.05;;;9.77;;
43297;SDS011;28892;55.640;37.532;2023-05-23T04:11:36;16.52;;;10.13;;
43297;SDS011;28892;55.640;37.532;2023-05-23T04:14:02;14.02;;;9.25;;
43297;SDS011;28892;55.640;37.532;2023-05-23T04:16:28;13.45;;;9.30;;
43297;SDS011;28892;55.640;37.532;2023-05-23T04:18:58;13.77;;;9.10;;
43297;SDS011;28892;55.640;37.532;2023-05-23T04:21:29;16.92;;;10.50;;
43297;SDS011;28892;55.640;37.532;2023-05-23T04:24:04;16.85;;;10.25;;
43297;SDS011;28892;55.640;37.532;2023-05-23T04:26:31;16.83;;;10.73;;
43297;SDS011;28892;55.640;37.532;2023-05-23T04:29:04;16.10;;;10.40;;
43297;SDS011;28892;55.640;37.532;2023-05-23T04:31:31;16.10;;;10.38;;
43297;SDS011;28892;55.640;37.532;2023-05-23T04:33:59;13.68;;;10.15;;
43297;SDS011;28892;55.640;37.532;2023-05-23T04:36:34;12.45;;;9.38;;
43297;SDS011;28892;55.640;37.532;2023-05-23T04:39:04;16.52;;;10.60;;
43297;SDS011;28892;55.640;37.532;2023-05-23T04:41:32;14.43;;;9.60;;
43297;SDS011;28892;55.640;37.532;2023-05-23T04:44:25;14.18;;;9.65;;
43297;SDS011;28892;55.640;37.532;2023-05-23T04:47:37;17.42;;;9.52;;
43297;SDS011;28892;55.640;37.532;2023-05-23T04:53:02;13.02;;;9.05;;
43297;SDS011;28892;55.640;37.532;2023-05-23T04:55:28;13.40;;;8.50;;
43297;SDS011;28892;55.640;37.532;2023-05-23T04:58:17;15.90;;;8.82;;
43297;SDS011;28892;55.640;37.532;2023-05-23T05:00:58;14.82;;;8.18;;
43297;SDS011;28892;55.640;37.532;2023-05-23T05:03:25;9.95;;;8.25;;
43297;SDS011;28892;55.640;37.532;2023-05-23T05:05:54;15.15;;;8.85;;
43297;SDS011;28892;55.640;37.532;2023-05-23T05:08:42;12.35;;;8.05;;
43297;SDS011;28892;55.640;37.532;2023-05-23T05:11:12;11.43;;;7.88;;
43297;SDS011;28892;55.640;37.532;2023-05-23T05:13:41;12.55;;;7.47;;
43297;SDS011;28892;55.640;37.532;2023-05-23T05:16:07;14.93;;;7.80;;
43297;SDS011;28892;55.640;37.532;2023-05-23T05:18:34;13.93;;;7.72;;
43297;SDS011;28892;55.640;37.532;2023-05-23T05:21:01;13.88;;;7.65;;
43297;SDS011;28892;55.640;37.532;2023-05-23T05:23:29;13.68;;;7.72;;
43297;SDS011;28892;55.640;37.532;2023-05-23T05:25:57;13.65;;;7.70;;
43297;SDS011;28892;55.640;37.532;2023-05-23T05:28:26;13.82;;;7.68;;
43297;SDS011;28892;55.640;37.532;2023-05-23T05:30:52;14.63;;;7.15;;
43297;SDS011;28892;55.640;37.532;2023-05-23T05:33:20;15.48;;;6.70;;
43297;SDS011;28892;55.640;37.532;2023-05-23T05:36:11;17.05;;;6.93;;
43297;SDS011;28892;55.640;37.532;2023-05-23T05:38:44;12.18;;;6.95;;
43297;SDS011;28892;55.640;37.532;2023-05-23T05:41:13;13.45;;;7.45;;
43297;SDS011;28892;55.640;37.532;2023-05-23T05:43:49;12.10;;;7.88;;
43297;SDS011;28892;55.640;37.532;2023-05-23T05:46:20;11.30;;;7.88;;
43297;SDS011;28892;55.640;37.532;2023-05-23T05:48:48;13.82;;;7.43;;
43297;SDS011;28892;55.640;37.532;2023-05-23T05:51:46;13.82;;;7.00;;
43297;SDS011;28892;55.640;37.532;2023-05-23T05:54:31;14.73;;;7.15;;
43297;SDS011;28892;55.640;37.532;2023-05-23T05:57:04;12.52;;;7.43;;
43297;SDS011;28892;55.640;37.532;2023-05-23T05:59:31;13.23;;;6.78;;
43297;SDS011;28892;55.640;37.532;2023-05-23T06:02:00;10.25;;;7.03;;
43297;SDS011;28892;55.640;37.532;2023-05-23T06:04:30;11.50;;;7.20;;
43297;SDS011;28892;55.640;37.532;2023-05-23T06:07:19;15.27;;;6.63;;
43297;SDS011;28892;55.640;37.532;2023-05-23T06:09:53;11.18;;;6.45;;
43297;SDS011;28892;55.640;37.532;2023-05-23T06:15:58;10.73;;;6.82;;
43297;SDS011;28892;55.640;37.532;2023-05-23T06:22:13;11.55;;;6.20;;
43297;SDS011;28892;55.640;37.532;2023-05-23T06:24:39;9.45;;;5.70;;
43297;SDS011;28892;55.640;37.532;2023-05-23T06:27:06;12.70;;;6.05;;
43297;SDS011;28892;55.640;37.532;2023-05-23T06:29:32;10.00;;;5.97;;
43297;SDS011;28892;55.640;37.532;2023-05-23T06:32:00;10.73;;;6.50;;
43297;SDS011;28892;55.640;37.532;2023-05-23T06:34:34;16.10;;;7.03;;
43297;SDS011;28892;55.640;37.532;2023-05-23T06:37:06;12.48;;;5.90;;
43297;SDS011;28892;55.640;37.532;2023-05-23T06:39:38;9.02;;;5.93;;
43297;SDS011;28892;55.640;37.532;2023-05-23T06:42:05;9.20;;;6.10;;
43297;SDS011;28892;55.640;37.532;2023-05-23T06:44:51;13.73;;;6.55;;
43297;SDS011;28892;55.640;37.532;2023-05-23T06:51:18;11.45;;;6.25;;
43297;SDS011;28892;55.640;37.532;2023-05-23T06:53:56;12.02;;;5.43;;
43297;SDS011;28892;55.640;37.532;2023-05-23T06:56:25;13.25;;;5.65;;
43297;SDS011;28892;55.640;37.532;2023-05-23T06:58:58;9.52;;;5.88;;
43297;SDS011;28892;55.640;37.532;2023-05-23T07:01:44;11.88;;;6.00;;
43297;SDS011;28892;55.640;37.532;2023-05-23T07:04:13;10.38;;;5.82;;
43297;SDS011;28892;55.640;37.532;2023-05-23T07:07:00;10.52;;;6.03;;
43297;SDS011;28892;55.640;37.532;2023-05-23T07:09:54;8.52;;;5.20;;
43297;SDS011;28892;55.640;37.532;2023-05-23T07:12:22;11.07;;;5.80;;
43297;SDS011;28892;55.640;37.532;2023-05-23T07:14:58;12.10;;;5.82;;
43297;SDS011;28892;55.640;37.532;2023-05-23T07:17:37;7.65;;;6.20;;
43297;SDS011;28892;55.640;37.532;2023-05-23T07:20:06;15.65;;;6.13;;
43297;SDS011;28892;55.640;37.532;2023-05-23T07:22:35;10.70;;;5.45;;
43297;SDS011;28892;55.640;37.532;2023-05-23T07:25:01;11.35;;;5.57;;
43297;SDS011;28892;55.640;37.532;2023-05-23T07:27:31;13.52;;;5.53;;
43297;SDS011;28892;55.640;37.532;2023-05-23T07:29:56;13.38;;;4.93;;
43297;SDS011;28892;55.640;37.532;2023-05-23T07:32:40;11.80;;;5.30;;
43297;SDS011;28892;55.640;37.532;2023-05-23T07:38:01;8.02;;;5.03;;
43297;SDS011;28892;55.640;37.532;2023-05-23T07:40:30;10.70;;;5.47;;
43297;SDS011;28892;55.640;37.532;2023-05-23T07:43:55;12.77;;;4.82;;
43297;SDS011;28892;55.640;37.532;2023-05-23T07:46:23;11.73;;;4.65;;
43297;SDS011;28892;55.640;37.532;2023-05-23T07:48:49;9.90;;;4.50;;
43297;SDS011;28892;55.640;37.532;2023-05-23T07:51:15;15.68;;;4.85;;
43297;SDS011;28892;55.640;37.532;2023-05-23T07:53:43;12.48;;;7.40;;
43297;SDS011;28892;55.640;37.532;2023-05-23T07:56:14;8.02;;;4.78;;
43297;SDS011;28892;55.640;37.532;2023-05-23T07:58:42;8.80;;;5.00;;
43297;SDS011;28892;55.640;37.532;2023-05-23T08:01:08;10.07;;;5.28;;
43297;SDS011;28892;55.640;37.532;2023-05-23T08:03:58;11.80;;;5.13;;
43297;SDS011;28892;55.640;37.532;2023-05-23T08:07:12;10.45;;;4.88;;
43297;SDS011;28892;55.640;37.532;2023-05-23T08:09:52;11.05;;;5.38;;
43297;SDS011;28892;55.640;37.532;2023-05-23T08:12:25;9.20;;;5.30;;
43297;SDS011;28892;55.640;37.532;2023-05-23T08:14:59;7.85;;;4.88;;
43297;SDS011;28892;55.640;37.532;2023-05-23T08:17:33;9.32;;;5.43;;
43297;SDS011;28892;55.640;37.532;2023-05-23T08:20:00;11.02;;;5.07;;
43297;SDS011;28892;55.640;37.532;2023-05-23T08:22:30;13.77;;;5.30;;
43297;SDS011;28892;55.640;37.532;2023-05-23T08:24:56;9.75;;;5.30;;
43297;SDS011;28892;55.640;37.532;2023-05-23T08:27:23;9.93;;;4.45;;
43297;SDS011;28892;55.640;37.532;2023-05-23T08:29:54;12.45;;;4.93;;
43297;SDS011;28892;55.640;37.532;2023-05-23T08:32:31;9.93;;;5.43;;
43297;SDS011;28892;55.640;37.532;2023-05-23T08:35:00;10.68;;;4.75;;
43297;SDS011;28892;55.640;37.532;2023-05-23T08:37:30;9.30;;;4.95;;
43297;SDS011;28892;55.640;37.532;2023-05-23T08:39:56;11.27;;;4.35;;
43297;SDS011;28892;55.640;37.532;2023-05-23T08:42:39;10.88;;;5.00;;
43297;SDS011;28892;55.640;37.532;2023-05-23T08:45:10;9.63;;;4.88;;
43297;SDS011;28892;55.640;37.532;2023-05-23T08:47:42;8.00;;;5.10;;
43297;SDS011;28892;55.640;37.532;2023-05-23T08:50:21;10.50;;;5.00;;
43297;SDS011;28892;55.640;37.532;2023-05-23T08:52:54;8.18;;;4.70;;
43297;SDS011;28892;55.640;37.532;2023-05-23T08:55:25;9.35;;;4.90;;
43297;SDS011;28892;55.640;37.532;2023-05-23T08:57:53;5.57;;;4.95;;
43297;SDS011;28892;55.640;37.532;2023-05-23T09:00:33;11.98;;;7.40;;
43297;SDS011;28892;55.640;37.532;2023-05-23T09:02:59;9.10;;;5.78;;
43297;SDS011;28892;55.640;37.532;2023-05-23T09:05:40;8.77;;;4.82;;
43297;SDS011;28892;55.640;37.532;2023-05-23T09:08:10;13.43;;;5.30;;
43297;SDS011;28892;55.640;37.532;2023-05-23T09:10:41;12.05;;;5.57;;
43297;SDS011;28892;55.640;37.532;2023-05-23T09:13:11;12.93;;;5.25;;
43297;SDS011;28892;55.640;37.532;2023-05-23T09:15:54;7.40;;;4.53;;
43297;SDS011;28892;55.640;37.532;2023-05-23T09:18:24;8.07;;;4.90;;
43297;SDS011;28892;55.640;37.532;2023-05-23T09:21:12;8.32;;;4.70;;
43297;SDS011;28892;55.640;37.532;2023-05-23T09:23:47;10.10;;;4.35;;
43297;SDS011;28892;55.640;37.532;2023-05-23T09:26:16;6.15;;;4.40;;
43297;SDS011;28892;55.640;37.532;2023-05-23T09:28:42;7.65;;;4.60;;
43297;SDS011;28892;55.640;37.532;2023-05-23T09:31:09;8.50;;;4.35;;
43297;SDS011;28892;55.640;37.532;2023-05-23T09:33:37;9.77;;;4.50;;
43297;SDS011;28892;55.640;37.532;2023-05-23T09:36:10;6.18;;;4.18;;
43297;SDS011;28892;55.640;37.532;2023-05-23T09:38:42;6.63;;;3.45;;
43297;SDS011;28892;55.640;37.532;2023-05-23T09:41:13;6.28;;;3.70;;
43297;SDS011;28892;55.640;37.532;2023-05-23T09:49:15;5.50;;;3.45;;
43297;SDS011;28892;55.640;37.532;2023-05-23T09:51:58;6.85;;;3.58;;
43297;SDS011;28892;55.640;37.532;2023-05-23T09:54:25;5.20;;;3.67;;
43297;SDS011;28892;55.640;37.532;2023-05-23T09:56:51;8.07;;;4.57;;
43297;SDS011;28892;55.640;37.532;2023-05-23T09:59:20;6.72;;;4.15;;
43297;SDS011;28892;55.640;37.532;2023-05-23T10:01:50;6.03;;;4.40;;
43297;SDS011;28892;55.640;37.532;2023-05-23T10:04:24;7.22;;;4.07;;
43297;SDS011;28892;55.640;37.532;2023-05-23T10:06:55;5.82;;;4.78;;
43297;SDS011;28892;55.640;37.532;2023-05-23T10:09:26;7.13;;;4.28;;
43297;SDS011;28892;55.640;37.532;2023-05-23T10:14:43;7.40;;;4.68;;
43297;SDS011;28892;55.640;37.532;2023-05-23T10:20:16;7.18;;;4.72;;
43297;SDS011;28892;55.640;37.532;2023-05-23T10:22:48;6.10;;;4.90;;
43297;SDS011;28892;55.640;37.532;2023-05-23T10:25:17;5.90;;;5.30;;
43297;SDS011;28892;55.640;37.532;2023-05-23T10:31:05;8.90;;;5.72;;
43297;SDS011;28892;55.640;37.532;2023-05-23T10:33:32;7.97;;;5.10;;
43297;SDS011;28892;55.640;37.532;2023-05-23T10:36:19;6.40;;;4.70;;
43297;SDS011;28892;55.640;37.532;2023-05-23T10:38:52;14.05;;;5.63;;
43297;SDS011;28892;55.640;37.532;2023-05-23T10:41:37;8.48;;;6.05;;
43297;SDS011;28892;55.640;37.532;2023-05-23T10:44:22;9.98;;;5.28;;
43297;SDS011;28892;55.640;37.532;2023-05-23T10:46:58;8.23;;;5.47;;
43297;SDS011;28892;55.640;37.532;2023-05-23T10:49:36;9.65;;;5.75;;
43297;SDS011;28892;55.640;37.532;2023-05-23T10:52:04;9.13;;;5.88;;
43297;SDS011;28892;55.640;37.532;2023-05-23T10:54:34;6.85;;;6.10;;
43297;SDS011;28892;55.640;37.532;2023-05-23T10:57:11;7.55;;;6.03;;
43297;SDS011;28892;55.640;37.532;2023-05-23T10:59:41;7.57;;;6.10;;
43297;SDS011;28892;55.640;37.532;2023-05-23T11:02:14;7.75;;;6.68;;
43297;SDS011;28892;55.640;37.532;2023-05-23T11:14:33;10.18;;;6.57;;
43297;SDS011;28892;55.640;37.532;2023-05-23T11:22:34;9.15;;;7.05;;
43297;SDS011;28892;55.640;37.532;2023-05-23T11:25:07;9.23;;;6.93;;
43297;SDS011;28892;55.640;37.532;2023-05-23T11:27:37;9.45;;;6.95;;
43297;SDS011;28892;55.640;37.532;2023-05-23T11:32:41;8.38;;;7.28;;
43297;SDS011;28892;55.640;37.532;2023-05-23T11:35:08;7.85;;;7.05;;
43297;SDS011;28892;55.640;37.532;2023-05-23T11:37:39;10.75;;;6.80;;
43297;SDS011;28892;55.640;37.532;2023-05-23T11:42:52;7.95;;;7.13;;
43297;SDS011;28892;55.640;37.532;2023-05-23T11:45:19;8.70;;;6.90;;
43297;SDS011;28892;55.640;37.532;2023-05-23T11:47:45;9.57;;;6.97;;
43297;SDS011;28892;55.640;37.532;2023-05-23T11:50:11;7.95;;;7.05;;
43297;SDS011;28892;55.640;37.532;2023-05-23T11:52:37;10.07;;;7.00;;
43297;SDS011;28892;55.640;37.532;2023-05-23T11:55:03;9.77;;;6.32;;
43297;SDS011;28892;55.640;37.532;2023-05-23T11:57:31;9.13;;;7.18;;
43297;SDS011;28892;55.640;37.532;2023-05-23T11:59:57;9.73;;;7.90;;
43297;SDS011;28892;55.640;37.532;2023-05-23T12:02:23;10.10;;;8.05;;
43297;SDS011;28892;55.640;37.532;2023-05-23T12:04:52;9.85;;;8.05;;
43297;SDS011;28892;55.640;37.532;2023-05-23T12:07:19;11.00;;;8.95;;
43297;SDS011;28892;55.640;37.532;2023-05-23T12:09:45;9.93;;;8.93;;
43297;SDS011;28892;55.640;37.532;2023-05-23T12:12:12;14.50;;;9.00;;
43297;SDS011;28892;55.640;37.532;2023-05-23T12:14:38;10.75;;;8.73;;
43297;SDS011;28892;55.640;37.532;2023-05-23T12:17:12;8.90;;;8.00;;
43297;SDS011;28892;55.640;37.532;2023-05-23T12:19:38;8.55;;;7.63;;
43297;SDS011;28892;55.640;37.532;2023-05-23T12:22:09;10.07;;;8.13;;
43297;SDS011;28892;55.640;37.532;2023-05-23T12:24:43;9.98;;;8.07;;
43297;SDS011;28892;55.640;37.532;2023-05-23T12:27:26;9.73;;;7.60;;
43297;SDS011;28892;55.640;37.532;2023-05-23T12:30:14;10.57;;;8.07;;
43297;SDS011;28892;55.640;37.532;2023-05-23T12:32:42;9.30;;;7.55;;
43297;SDS011;28892;55.640;37.532;2023-05-23T12:35:12;10.10;;;7.00;;
43297;SDS011;28892;55.640;37.532;2023-05-23T12:38:01;9.05;;;8.07;;
43297;SDS011;28892;55.640;37.532;2023-05-23T12:40:34;11.98;;;7.82;;
43297;SDS011;28892;55.640;37.532;2023-05-23T12:43:23;8.60;;;7.72;;
43297;SDS011;28892;55.640;37.532;2023-05-23T12:49:26;10.18;;;7.88;;
43297;SDS011;28892;55.640;37.532;2023-05-23T12:59:38;9.70;;;8.05;;
43297;SDS011;28892;55.640;37.532;2023-05-23T13:05:35;10.82;;;8.35;;
43297;SDS011;28892;55.640;37.532;2023-05-23T13:08:05;9.88;;;8.23;;
43297;SDS011;28892;55.640;37.532;2023-05-23T13:10:39;11.93;;;7.70;;
43297;SDS011;28892;55.640;37.532;2023-05-23T13:13:16;8.02;;;7.00;;
43297;SDS011;28892;55.640;37.532;2023-05-23T13:15:47;8.20;;;7.40;;
43297;SDS011;28892;55.640;37.532;2023-05-23T13:18:13;9.55;;;7.78;;
43297;SDS011;28892;55.640;37.532;2023-05-23T13:20:39;9.55;;;7.65;;
43297;SDS011;28892;55.640;37.532;2023-05-23T13:23:22;13.23;;;8.52;;
43297;SDS011;28892;55.640;37.532;2023-05-23T13:26:08;11.15;;;7.70;;
43297;SDS011;28892;55.640;37.532;2023-05-23T13:28:37;9.35;;;8.30;;
43297;SDS011;28892;55.640;37.532;2023-05-23T13:31:04;11.13;;;7.68;;
43297;SDS011;28892;55.640;37.532;2023-05-23T13:33:47;9.52;;;8.02;;
43297;SDS011;28892;55.640;37.532;2023-05-23T13:36:13;12.18;;;8.52;;
43297;SDS011;28892;55.640;37.532;2023-05-23T13:38:41;10.07;;;7.82;;
43297;SDS011;28892;55.640;37.532;2023-05-23T13:41:07;11.02;;;8.40;;
43297;SDS011;28892;55.640;37.532;2023-05-23T13:43:33;8.65;;;7.60;;
43297;SDS011;28892;55.640;37.532;2023-05-23T13:49:42;9.65;;;7.55;;
43297;SDS011;28892;55.640;37.532;2023-05-23T13:52:11;13.88;;;8.32;;
43297;SDS011;28892;55.640;37.532;2023-05-23T13:55:38;9.25;;;7.65;;
43297;SDS011;28892;55.640;37.532;2023-05-23T13:58:07;7.85;;;6.85;;
43297;SDS011;28892;55.640;37.532;2023-05-23T14:03:47;9.80;;;8.18;;
43297;SDS011;28892;55.640;37.532;2023-05-23T14:09:39;10.57;;;7.70;;
43297;SDS011;28892;55.640;37.532;2023-05-23T14:12:05;9.13;;;7.35;;
43297;SDS011;28892;55.640;37.532;2023-05-23T14:14:31;11.27;;;7.88;;
43297;SDS011;28892;55.640;37.532;2023-05-23T14:17:00;8.70;;;7.78;;
43297;SDS011;28892;55.640;37.532;2023-05-23T14:19:30;9.32;;;7.60;;
43297;SDS011;28892;55.640;37.532;2023-05-23T14:21:58;9.10;;;7.30;;
43297;SDS011;28892;55.640;37.532;2023-05-23T14:24:24;8.88;;;7.68;;
43297;SDS011;28892;55.640;37.532;2023-05-23T14:27:00;9.75;;;7.60;;
43297;SDS011;28892;55.640;37.532;2023-05-23T14:29:26;18.52;;;10.50;;
43297;SDS011;28892;55.640;37.532;2023-05-23T14:31:53;16.67;;;9.48;;
43297;SDS011;28892;55.640;37.532;2023-05-23T14:34:21;14.55;;;9.27;;
43297;SDS011;28892;55.640;37.532;2023-05-23T14:36:54;11.70;;;9.25;;
43297;SDS011;28892;55.640;37.532;2023-05-23T14:39:31;12.13;;;8.60;;
43297;SDS011;28892;55.640;37.532;2023-05-23T14:42:19;11.13;;;8.07;;
43297;SDS011;28892;55.640;37.532;2023-05-23T14:45:47;12.02;;;8.70;;
43297;SDS011;28892;55.640;37.532;2023-05-23T14:48:27;10.40;;;8.32;;
43297;SDS011;28892;55.640;37.532;2023-05-23T14:51:45;10.30;;;7.60;;
43297;SDS011;28892;55.640;37.532;2023-05-23T14:54:17;11.70;;;8.48;;
43297;SDS011;28892;55.640;37.532;2023-05-23T15:00:34;10.82;;;8.70;;
43297;SDS011;28892;55.640;37.532;2023-05-23T15:05:39;15.20;;;7.22;;
43297;SDS011;28892;55.640;37.532;2023-05-23T15:08:11;9.20;;;7.57;;
43297;SDS011;28892;55.640;37.532;2023-05-23T15:10:59;11.88;;;8.68;;
43297;SDS011;28892;55.640;37.532;2023-05-23T15:13:43;12.20;;;9.07;;
43297;SDS011;28892;55.640;37.532;2023-05-23T15:16:09;15.07;;;8.60;;
43297;SDS011;28892;55.640;37.532;2023-05-23T15:18:35;15.57;;;8.55;;
43297;SDS011;28892;55.640;37.532;2023-05-23T15:21:10;16.77;;;8.73;;
43297;SDS011;28892;55.640;37.532;2023-05-23T15:24:41;13.05;;;8.20;;
43297;SDS011;28892;55.640;37.532;2023-05-23T15:32:50;12.88;;;7.97;;
43297;SDS011;28892;55.640;37.532;2023-05-23T15:35:29;10.57;;;7.88;;
43297;SDS011;28892;55.640;37.532;2023-05-23T15:38:07;17.02;;;9.20;;
43297;SDS011;28892;55.640;37.532;2023-05-23T15:40:33;14.80;;;9.18;;
43297;SDS011;28892;55.640;37.532;2023-05-23T15:43:02;17.05;;;8.23;;
43297;SDS011;28892;55.640;37.532;2023-05-23T15:45:31;13.45;;;8.00;;
43297;SDS011;28892;55.640;37.532;2023-05-23T15:47:57;13.23;;;7.95;;
43297;SDS011;28892;55.640;37.532;2023-05-23T15:50:23;12.43;;;8.15;;
43297;SDS011;28892;55.640;37.532;2023-05-23T15:52:51;13.23;;;8.07;;
43297;SDS011;28892;55.640;37.532;2023-05-23T15:55:17;13.20;;;8.25;;
43297;SDS011;28892;55.640;37.532;2023-05-23T15:57:46;14.52;;;8.13;;
43297;SDS011;28892;55.640;37.532;2023-05-23T16:00:21;14.27;;;8.68;;
43297;SDS011;28892;55.640;37.532;2023-05-23T16:02:50;15.05;;;8.63;;
43297;SDS011;28892;55.640;37.532;2023-05-23T16:05:19;14.00;;;8.50;;
43297;SDS011;28892;55.640;37.532;2023-05-23T16:07:48;15.70;;;8.95;;
43297;SDS011;28892;55.640;37.532;2023-05-23T16:10:20;12.85;;;8.88;;
43297;SDS011;28892;55.640;37.532;2023-05-23T16:13:00;16.38;;;9.65;;
43297;SDS011;28892;55.640;37.532;2023-05-23T16:15:28;12.55;;;9.25;;
43297;SDS011;28892;55.640;37.532;2023-05-23T16:17:54;16.58;;;9.50;;
43297;SDS011;28892;55.640;37.532;2023-05-23T16:20:20;14.18;;;8.90;;
43297;SDS011;28892;55.640;37.532;2023-05-23T16:22:48;18.63;;;9.63;;
43297;SDS011;28892;55.640;37.532;2023-05-23T16:25:14;13.27;;;9.63;;
43297;SDS011;28892;55.640;37.532;2023-05-23T16:27:40;17.73;;;9.50;;
43297;SDS011;28892;55.640;37.532;2023-05-23T16:30:08;21.67;;;10.15;;
43297;SDS011;28892;55.640;37.532;2023-05-23T16:33:03;17.83;;;10.13;;